Time;durP1;ratioP1;P1;durP2;ratioP2;P2;SDS_P1;SDS_P2;PMS_P1;PMS_P2;Temp;Humidity;BMP_temperature;BMP_pressure;BME280_temperature;BME280_humidity;BME280_pressure;Samples;Min_cycle;Max_cycle;Signal;HPM_P1;HPM_P2
2021/06/06 00:01:06;;;;;;;18.90;16.80;;;15.40;94.50;;;;;;4996324;28;20257;-79
2021/06/06 00:03:36;;;;;;;18.47;16.57;;;15.50;93.40;;;;;;5001735;28;20209;-78
2021/06/06 00:06:08;;;;;;;20.90;16.97;;;15.30;93.90;;;;;;5005465;28;20171;-79
2021/06/06 00:08:34;;;;;;;19.73;17.63;;;15.30;95.20;;;;;;5005779;28;20259;-77
2021/06/06 00:11:08;;;;;;;21.73;16.83;;;15.20;95.20;;;;;;5002643;28;20679;-80
2021/06/06 00:13:38;;;;;;;19.73;16.73;;;15.00;96.00;;;;;;4996708;28;20174;-79
2021/06/06 00:16:07;;;;;;;20.80;17.97;;;14.90;96.60;;;;;;4997572;28;20155;-79
2021/06/06 00:18:33;;;;;;;20.10;17.67;;;15.00;96.50;;;;;;4997343;28;20159;-79
2021/06/06 00:20:59;;;;;;;19.57;17.50;;;15.10;96.00;;;;;;4995307;28;20542;-80
2021/06/06 00:23:25;;;;;;;18.77;16.87;;;15.30;95.60;;;;;;4996566;28;20186;-78
2021/06/06 00:25:50;;;;;;;18.67;16.40;;;15.40;95.40;;;;;;4998118;28;20642;-79
2021/06/06 00:28:17;;;;;;;17.07;15.30;;;15.40;93.70;;;;;;4998495;28;20202;-80
2021/06/06 00:30:43;;;;;;;18.83;16.93;;;15.40;92.40;;;;;;4996412;28;20268;-78
2021/06/06 00:33:09;;;;;;;19.30;16.37;;;15.30;92.80;;;;;;4996196;28;20179;-78
2021/06/06 00:35:35;;;;;;;19.10;16.17;;;15.20;92.90;;;;;;4995659;28;20205;-78
2021/06/06 00:38:01;;;;;;;19.53;17.47;;;14.90;93.80;;;;;;4995688;28;20265;-76
2021/06/06 00:40:29;;;;;;;21.27;17.20;;;14.90;94.90;;;;;;4995778;28;20175;-78
2021/06/06 00:42:55;;;;;;;19.83;17.77;;;14.80;96.20;;;;;;4995910;28;20835;-78
2021/06/06 00:45:24;;;;;;;20.97;17.03;;;15.00;96.20;;;;;;4996164;28;20189;-78
2021/06/06 00:47:50;;;;;;;22.40;17.40;;;14.90;96.60;;;;;;4995927;28;20649;-78
2021/06/06 00:50:23;;;;;;;18.70;16.63;;;15.00;96.30;;;;;;4994104;28;20215;-79
2021/06/06 00:52:53;;;;;;;19.60;17.03;;;14.90;96.50;;;;;;4994475;28;20187;-79
2021/06/06 00:55:19;;;;;;;19.83;17.00;;;15.00;96.10;;;;;;4995109;28;20177;-79
2021/06/06 00:57:45;;;;;;;19.17;16.97;;;14.90;96.00;;;;;;4995286;28;20253;-79
2021/06/06 01:00:28;;;;;;;21.90;15.63;;;14.80;96.90;;;;;;4996133;28;20175;-79
2021/06/06 01:02:54;;;;;;;17.37;15.53;;;15.00;96.80;;;;;;4993330;28;20174;-79
2021/06/06 01:05:29;;;;;;;17.73;15.33;;;14.90;96.40;;;;;;4993454;28;20181;-79
2021/06/06 01:07:55;;;;;;;18.73;15.23;;;14.80;96.50;;;;;;4995631;28;20178;-79
2021/06/06 01:10:22;;;;;;;17.80;14.90;;;14.70;97.00;;;;;;4995281;28;20210;-78
2021/06/06 01:12:55;;;;;;;19.40;15.83;;;14.50;97.70;;;;;;4995779;28;20179;-79
2021/06/06 01:15:35;;;;;;;16.90;14.93;;;14.50;98.30;;;;;;4997079;28;20171;-79
2021/06/06 01:18:24;;;;;;;18.33;15.33;;;14.40;98.30;;;;;;4997779;28;20178;-78
2021/06/06 01:20:49;;;;;;;16.33;14.37;;;14.40;98.70;;;;;;4998686;28;20178;-77
2021/06/06 01:23:34;;;;;;;17.37;15.30;;;14.50;98.80;;;;;;4996170;28;20174;-79
2021/06/06 01:26:05;;;;;;;19.53;14.07;;;14.50;98.00;;;;;;5001634;28;20622;-78
2021/06/06 01:28:55;;;;;;;17.53;14.77;;;14.30;98.10;;;;;;5005464;28;20175;-78
2021/06/06 01:31:24;;;;;;;18.20;14.80;;;14.30;98.90;;;;;;5004819;28;20215;-78
2021/06/06 01:33:56;;;;;;;18.70;14.10;;;14.30;98.80;;;;;;4995769;28;20181;-79
2021/06/06 01:36:26;;;;;;;17.50;14.00;;;14.30;98.90;;;;;;4996699;28;20199;-79
2021/06/06 01:38:59;;;;;;;17.77;14.67;;;14.30;99.00;;;;;;4996815;28;20216;-79
2021/06/06 01:41:34;;;;;;;17.20;13.83;;;14.20;99.40;;;;;;4995656;28;20276;-79
2021/06/06 01:44:02;;;;;;;18.27;14.40;;;14.20;99.50;;;;;;4993793;28;20170;-79
2021/06/06 01:46:42;;;;;;;19.57;14.37;;;14.20;99.80;;;;;;5003439;28;20169;-77
2021/06/06 01:49:09;;;;;;;17.33;15.47;;;14.40;99.50;;;;;;5012659;28;20170;-78
2021/06/06 01:51:39;;;;;;;15.60;14.00;;;14.30;99.60;;;;;;5009549;28;20205;-80
2021/06/06 01:54:11;;;;;;;16.97;14.63;;;14.40;99.30;;;;;;4998929;28;20189;-80
2021/06/06 01:56:40;;;;;;;16.03;14.30;;;14.40;98.90;;;;;;4998587;28;20658;-80
2021/06/06 01:59:16;;;;;;;18.67;14.87;;;14.40;98.70;;;;;;4999511;28;20181;-79
2021/06/06 02:01:41;;;;;;;17.50;14.83;;;14.40;98.80;;;;;;4998518;28;20165;-78
2021/06/06 02:04:08;;;;;;;18.70;15.17;;;14.40;99.10;;;;;;4998102;28;20635;-79
2021/06/06 02:06:41;;;;;;;16.37;14.67;;;14.40;99.10;;;;;;4998576;28;20174;-79
2021/06/06 02:09:11;;;;;;;16.67;14.97;;;14.50;99.30;;;;;;4998286;28;20173;-78
2021/06/06 02:11:48;;;;;;;17.37;15.43;;;14.60;98.60;;;;;;4997548;28;20652;-77
2021/06/06 02:14:18;;;;;;;19.53;15.97;;;14.60;98.40;;;;;;4999983;28;20254;-78
2021/06/06 02:16:49;;;;;;;17.37;15.67;;;14.40;98.90;;;;;;5016132;28;20183;-78
2021/06/06 02:19:16;;;;;;;19.83;16.13;;;14.50;98.90;;;;;;5016237;28;20188;-77
2021/06/06 02:21:42;;;;;;;18.53;16.50;;;14.50;99.10;;;;;;5015195;28;20173;-78
2021/06/06 02:24:08;;;;;;;23.27;18.37;;;14.50;98.90;;;;;;5014437;28;20185;-79
2021/06/06 02:27:01;;;;;;;19.90;17.80;;;14.50;99.00;;;;;;5006150;28;20177;-78
2021/06/06 02:29:51;;;;;;;24.10;19.00;;;14.70;98.90;;;;;;4998870;28;20155;-79
2021/06/06 02:32:54;;;;;;;21.90;18.03;;;14.90;97.40;;;;;;4998550;28;20263;-79
2021/06/06 02:35:32;;;;;;;19.03;17.03;;;15.00;96.80;;;;;;4995965;28;20202;-79
2021/06/06 02:38:33;;;;;;;19.97;17.87;;;15.00;96.50;;;;;;4996767;28;20181;-78
2021/06/06 02:41:05;;;;;;;24.03;18.97;;;15.10;96.40;;;;;;4998622;28;20663;-79
2021/06/06 02:43:38;;;;;;;22.20;17.70;;;15.00;96.40;;;;;;4998469;28;20210;-78
2021/06/06 02:46:06;;;;;;;22.83;18.37;;;15.10;96.70;;;;;;4997436;28;20171;-78
2021/06/06 02:48:58;;;;;;;19.83;17.70;;;15.10;96.40;;;;;;4998375;28;20203;-79
2021/06/06 02:51:25;;;;;;;21.27;18.97;;;15.20;96.00;;;;;;4998409;28;20226;-78
2021/06/06 02:53:58;;;;;;;20.10;17.70;;;15.30;95.80;;;;;;5017350;28;20194;-79
2021/06/06 02:56:28;;;;;;;23.20;19.33;;;15.30;95.30;;;;;;5015272;28;20202;-78
2021/06/06 02:58:59;;;;;;;21.00;18.57;;;15.30;95.20;;;;;;5018418;28;20178;-77
2021/06/06 03:01:33;;;;;;;21.43;19.23;;;15.40;94.80;;;;;;5017832;28;20179;-77
2021/06/06 03:04:04;;;;;;;23.30;20.80;;;15.40;94.60;;;;;;5005362;28;20601;-79
2021/06/06 03:06:41;;;;;;;24.73;22.13;;;15.30;94.40;;;;;;4998549;28;20330;-80
2021/06/06 03:09:09;;;;;;;30.10;25.93;;;15.40;94.20;;;;;;4998915;28;20218;-79
2021/06/06 03:11:38;;;;;;;31.03;26.50;;;15.40;93.10;;;;;;4997286;28;20214;-80
2021/06/06 03:14:08;;;;;;;32.97;26.97;;;15.40;92.70;;;;;;4997106;28;20642;-78
2021/06/06 03:16:37;;;;;;;33.97;27.47;;;15.30;93.20;;;;;;4996763;28;20182;-79
2021/06/06 03:19:05;;;;;;;30.80;27.47;;;15.20;93.90;;;;;;4996232;28;20206;-79
2021/06/06 03:21:36;;;;;;;31.53;28.33;;;15.00;95.30;;;;;;4998507;28;20553;-79
2021/06/06 03:24:05;;;;;;;29.43;26.27;;;14.90;96.40;;;;;;5000006;28;20272;-78
2021/06/06 03:26:35;;;;;;;31.13;27.93;;;14.70;97.50;;;;;;5005224;28;20221;-79
2021/06/06 03:29:07;;;;;;;32.33;28.87;;;14.80;97.70;;;;;;5001668;28;20269;-79
2021/06/06 03:31:39;;;;;;;34.70;29.57;;;14.90;97.30;;;;;;4999769;28;20677;-79
2021/06/06 03:34:06;;;;;;;31.10;27.83;;;14.90;96.90;;;;;;5014059;28;20174;-80
2021/06/06 03:36:38;;;;;;;35.50;28.60;;;14.90;96.70;;;;;;4998621;28;20191;-79
2021/06/06 03:39:08;;;;;;;32.73;29.00;;;14.80;97.40;;;;;;4997389;28;20170;-78
2021/06/06 03:41:34;;;;;;;32.13;28.67;;;14.80;97.60;;;;;;4995414;28;20226;-78
2021/06/06 03:44:00;;;;;;;36.20;30.33;;;14.80;97.60;;;;;;4996641;28;20178;-79
2021/06/06 03:46:27;;;;;;;34.67;30.90;;;14.80;97.40;;;;;;4997008;28;20182;-79
2021/06/06 03:48:54;;;;;;;33.30;29.70;;;14.90;96.60;;;;;;5011335;28;20198;-79
2021/06/06 03:51:21;;;;;;;34.37;29.90;;;14.90;96.20;;;;;;4996961;28;20239;-80
2021/06/06 03:53:47;;;;;;;34.63;30.80;;;14.80;96.70;;;;;;4996743;28;20201;-79
2021/06/06 03:56:13;;;;;;;34.23;30.60;;;14.70;97.50;;;;;;4995455;28;20178;-79
2021/06/06 03:58:40;;;;;;;34.47;30.80;;;14.60;97.70;;;;;;4995051;28;20804;-80
2021/06/06 04:01:07;;;;;;;36.73;29.63;;;14.60;98.10;;;;;;4996888;28;20174;-78
2021/06/06 04:03:33;;;;;;;34.23;30.57;;;14.50;98.10;;;;;;4995208;28;20181;-79
2021/06/06 04:05:59;;;;;;;33.90;30.17;;;14.30;98.70;;;;;;4995375;28;20202;-79
2021/06/06 04:08:25;;;;;;;32.90;29.37;;;14.40;99.00;;;;;;4996523;28;20631;-79
2021/06/06 04:10:51;;;;;;;34.30;29.30;;;14.30;99.10;;;;;;4996341;28;20241;-78
2021/06/06 04:13:17;;;;;;;32.37;28.97;;;14.30;99.30;;;;;;4994818;28;20174;-79
2021/06/06 04:15:43;;;;;;;33.77;28.20;;;14.50;99.20;;;;;;4995624;28;20177;-79
2021/06/06 04:18:14;;;;;;;33.27;29.70;;;14.50;98.80;;;;;;4994550;28;20212;-80
2021/06/06 04:20:41;;;;;;;32.57;28.60;;;14.50;98.90;;;;;;4994330;28;20190;-79
2021/06/06 04:23:07;;;;;;;30.67;27.47;;;14.50;98.80;;;;;;4995642;28;20284;-79
2021/06/06 04:25:33;;;;;;;31.63;28.07;;;14.50;98.90;;;;;;4996766;28;20167;-79
2021/06/06 04:27:59;;;;;;;32.90;27.67;;;14.60;98.80;;;;;;4994858;28;20182;-79
2021/06/06 04:30:25;;;;;;;31.50;27.97;;;14.60;98.60;;;;;;4993940;28;20175;-79
2021/06/06 04:32:51;;;;;;;31.03;27.50;;;14.70;98.50;;;;;;4995713;28;20205;-79
2021/06/06 04:35:17;;;;;;;31.40;28.10;;;14.70;98.10;;;;;;4994379;28;20624;-79
2021/06/06 04:37:43;;;;;;;30.83;27.53;;;14.90;97.80;;;;;;4995360;28;20635;-79
2021/06/06 04:40:11;;;;;;;31.77;28.47;;;14.90;97.10;;;;;;4995737;28;20181;-79
2021/06/06 04:42:37;;;;;;;32.57;29.03;;;15.10;96.90;;;;;;4995527;28;20662;-79
2021/06/06 04:45:06;;;;;;;34.10;28.17;;;15.20;96.00;;;;;;4995948;28;20182;-79
2021/06/06 04:47:31;;;;;;;32.13;28.03;;;15.30;95.10;;;;;;4995646;28;20177;-79
2021/06/06 04:49:57;;;;;;;31.77;28.17;;;15.50;94.80;;;;;;5010507;28;20177;-79
2021/06/06 04:52:23;;;;;;;34.37;29.03;;;15.30;93.90;;;;;;4995498;28;20214;-78
2021/06/06 04:54:49;;;;;;;31.20;27.43;;;15.40;94.80;;;;;;4995557;28;20211;-80
2021/06/06 04:57:15;;;;;;;31.87;28.47;;;15.70;93.90;;;;;;4995643;28;20206;-79
2021/06/06 04:59:40;;;;;;;32.93;29.40;;;15.60;93.30;;;;;;4994533;28;20183;-79
2021/06/06 05:02:11;;;;;;;33.27;29.77;;;15.60;93.10;;;;;;4994722;28;20250;-80
2021/06/06 05:04:40;;;;;;;33.57;29.90;;;15.70;92.40;;;;;;4995349;28;20195;-79
2021/06/06 05:07:06;;;;;;;36.73;31.57;;;15.80;91.80;;;;;;4995959;28;20248;-79
2021/06/06 05:09:31;;;;;;;34.80;30.93;;;15.80;92.10;;;;;;4994934;28;20632;-80
2021/06/06 05:11:57;;;;;;;35.53;29.90;;;16.00;91.60;;;;;;4994894;28;20218;-79
2021/06/06 05:14:23;;;;;;;34.93;30.67;;;15.80;91.20;;;;;;5010462;28;20188;-79
2021/06/06 05:16:48;;;;;;;35.47;30.53;;;15.80;90.90;;;;;;4993901;28;20186;-78
2021/06/06 05:19:14;;;;;;;37.83;31.83;;;15.70;92.20;;;;;;4995107;28;20179;-78
2021/06/06 05:21:40;;;;;;;36.13;30.87;;;15.70;92.60;;;;;;4995316;28;20275;-79
2021/06/06 05:24:07;;;;;;;35.70;30.67;;;15.60;93.30;;;;;;4994060;28;20245;-80
2021/06/06 05:26:32;;;;;;;34.47;30.50;;;15.60;93.20;;;;;;4995089;28;20184;-80
2021/06/06 05:28:58;;;;;;;36.33;31.73;;;15.80;93.10;;;;;;4995455;28;20649;-79
2021/06/06 05:31:24;;;;;;;35.93;30.73;;;15.90;92.20;;;;;;4995098;28;20233;-81
2021/06/06 05:33:49;;;;;;;36.67;32.67;;;16.00;90.90;;;;;;4994708;28;20179;-79
2021/06/06 05:36:16;;;;;;;37.80;32.50;;;16.20;90.10;;;;;;4994751;28;20202;-80
2021/06/06 05:38:43;;;;;;;40.07;34.23;;;16.20;86.20;;;;;;4995180;28;20627;-80
2021/06/06 05:41:10;;;;;;;38.17;33.57;;;16.30;86.50;;;;;;4994746;28;20170;-79
2021/06/06 05:43:36;;;;;;;39.23;32.33;;;16.20;89.00;;;;;;4994277;28;20186;-80
2021/06/06 05:46:04;;;;;;;35.47;31.23;;;16.10;90.20;;;;;;4993982;28;20211;-80
2021/06/06 05:48:30;;;;;;;39.57;33.10;;;16.20;90.10;;;;;;4994351;28;20194;-81
2021/06/06 05:50:59;;;;;;;37.40;33.40;;;16.30;87.10;;;;;;4995042;28;20210;-79
2021/06/06 05:53:25;;;;;;;36.03;31.57;;;16.50;83.50;;;;;;4994858;28;20195;-79
2021/06/06 05:55:51;;;;;;;36.70;31.40;;;16.70;82.70;;;;;;4994186;28;20184;-80
2021/06/06 05:58:18;;;;;;;38.17;31.80;;;16.60;80.60;;;;;;4994487;28;20171;-80
2021/06/06 06:00:46;;;;;;;40.97;32.87;;;16.50;78.10;;;;;;4994996;28;20167;-79
2021/06/06 06:03:12;;;;;;;38.33;32.47;;;16.40;80.20;;;;;;4994306;28;20198;-79
2021/06/06 06:05:38;;;;;;;37.30;31.53;;;16.40;81.60;;;;;;4993933;28;20268;-79
2021/06/06 06:08:25;;;;;;;37.67;31.17;;;16.20;87.00;;;;;;4993860;28;20209;-79
2021/06/06 06:10:53;;;;;;;31.67;28.27;;;16.20;89.20;;;;;;4993933;28;20215;-79
2021/06/06 06:13:20;;;;;;;32.23;28.40;;;16.30;87.10;;;;;;4994743;28;20175;-79
2021/06/06 06:15:46;;;;;;;32.57;27.07;;;16.30;86.90;;;;;;4994655;28;20222;-79
2021/06/06 06:18:12;;;;;;;31.47;27.57;;;16.40;86.00;;;;;;4995741;28;20171;-79
2021/06/06 06:20:39;;;;;;;31.40;27.83;;;16.50;85.40;;;;;;4996016;28;20195;-80
2021/06/06 06:23:05;;;;;;;30.70;26.63;;;16.70;80.90;;;;;;4995369;28;20251;-80
2021/06/06 06:25:31;;;;;;;32.97;28.27;;;16.80;79.80;;;;;;4995542;28;20688;-81
2021/06/06 06:27:58;;;;;;;31.77;28.20;;;16.80;80.30;;;;;;4994764;28;20171;-81
2021/06/06 06:30:30;;;;;;;32.37;27.27;;;17.10;80.10;;;;;;4995704;28;20253;-81
2021/06/06 06:32:56;;;;;;;28.77;25.60;;;17.00;75.00;;;;;;5000663;28;20171;-78
2021/06/06 06:35:23;;;;;;;28.83;24.50;;;17.00;67.40;;;;;;5010771;28;20235;-78
2021/06/06 06:37:49;;;;;;;27.63;24.63;;;17.00;68.90;;;;;;5009464;28;20182;-81
2021/06/06 06:40:22;;;;;;;27.90;24.80;;;17.00;71.40;;;;;;4998659;28;20234;-79
2021/06/06 06:42:49;;;;;;;26.10;23.30;;;17.10;69.40;;;;;;4999193;28;20175;-80
2021/06/06 06:45:20;;;;;;;28.13;25.23;;;17.10;68.40;;;;;;5014300;28;20183;-79
2021/06/06 06:47:47;;;;;;;29.13;24.60;;;17.30;69.80;;;;;;4998640;28;20582;-80
2021/06/06 06:50:15;;;;;;;25.23;22.03;;;17.30;70.90;;;;;;4997328;28;20211;-84
2021/06/06 06:52:40;;;;;;;24.80;20.27;;;17.40;63.60;;;;;;4998267;28;20191;-80
2021/06/06 06:55:14;;;;;;;20.60;17.83;;;17.40;57.20;;;;;;4998327;28;20331;-80
2021/06/06 06:57:39;;;;;;;25.63;19.80;;;17.40;55.00;;;;;;4998058;28;20175;-80
2021/06/06 07:00:09;;;;;;;23.80;19.63;;;17.50;57.70;;;;;;4998563;28;20627;-80
2021/06/06 07:02:35;;;;;;;20.17;17.33;;;17.50;55.10;;;;;;4997306;28;20624;-79
2021/06/06 07:05:00;;;;;;;19.63;15.97;;;17.50;52.70;;;;;;4999741;28;20201;-78
2021/06/06 07:07:26;;;;;;;18.43;14.83;;;17.40;51.60;;;;;;5005696;28;20183;-79
2021/06/06 07:09:52;;;;;;;17.30;14.40;;;17.50;47.70;;;;;;5009288;28;20171;-80
2021/06/06 07:12:18;;;;;;;15.93;14.23;;;17.10;53.40;;;;;;5001426;28;20644;-79
2021/06/06 07:14:43;;;;;;;14.00;11.50;;;16.90;57.70;;;;;;4999129;28;20179;-80
2021/06/06 07:17:09;;;;;;;14.13;12.10;;;16.90;53.20;;;;;;4999009;28;20190;-80
2021/06/06 07:19:35;;;;;;;17.63;13.47;;;16.80;53.80;;;;;;5001120;28;20175;-79
2021/06/06 07:22:04;;;;;;;16.20;12.07;;;16.90;56.40;;;;;;5006516;28;20187;-78
2021/06/06 07:24:29;;;;;;;17.60;12.83;;;16.90;54.10;;;;;;5002066;28;20258;-79
2021/06/06 07:26:56;;;;;;;15.63;12.40;;;16.90;53.30;;;;;;4998555;28;20658;-79
2021/06/06 07:29:25;;;;;;;16.50;13.87;;;17.00;51.70;;;;;;4998195;28;20163;-80
2021/06/06 07:31:55;;;;;;;16.77;14.13;;;17.10;47.90;;;;;;4999694;28;20225;-79
2021/06/06 07:34:22;;;;;;;16.17;12.93;;;17.10;46.40;;;;;;4999390;28;20183;-78
2021/06/06 07:36:52;;;;;;;15.83;13.63;;;17.40;46.60;;;;;;4999968;28;20191;-79
2021/06/06 07:39:17;;;;;;;14.43;12.93;;;17.40;45.00;;;;;;4997024;28;20187;-79
2021/06/06 07:41:43;;;;;;;13.83;11.37;;;17.50;41.20;;;;;;4996862;28;20545;-80
2021/06/06 07:44:09;;;;;;;11.10;9.47;;;17.60;29.00;;;;;;4997567;28;20190;-80
2021/06/06 07:46:35;;;;;;;12.70;10.57;;;17.40;26.00;;;;;;4997837;28;20179;-80
2021/06/06 07:49:01;;;;;;;11.93;9.70;;;17.40;32.10;;;;;;4998218;28;20187;-80
2021/06/06 07:51:28;;;;;;;10.80;9.70;;;17.50;29.40;;;;;;4996804;28;20203;-79
2021/06/06 07:53:54;;;;;;;12.73;10.77;;;17.30;32.70;;;;;;4996735;28;20264;-80
2021/06/06 07:56:20;;;;;;;12.40;10.33;;;17.10;34.70;;;;;;4992575;28;20644;-79
2021/06/06 07:58:46;;;;;;;15.50;12.47;;;17.10;39.90;;;;;;4997084;28;20250;-79
2021/06/06 08:01:12;;;;;;;14.43;10.63;;;17.40;39.30;;;;;;4996322;28;20217;-77
2021/06/06 08:03:38;;;;;;;14.33;11.53;;;17.60;34.30;;;;;;5003751;28;20182;-80
2021/06/06 08:06:06;;;;;;;12.67;10.47;;;17.80;35.70;;;;;;4985467;28;20180;-79
2021/06/06 08:08:31;;;;;;;11.70;10.50;;;18.00;30.80;;;;;;5000556;28;20551;-81
2021/06/06 08:11:00;;;;;;;11.67;9.50;;;17.90;31.40;;;;;;4984327;28;20203;-80
2021/06/06 08:13:26;;;;;;;13.73;11.23;;;17.90;31.50;;;;;;4992965;28;20202;-81
2021/06/06 08:15:55;;;;;;;12.70;10.17;;;17.80;34.30;;;;;;4997614;28;20186;-79
2021/06/06 08:18:25;;;;;;;12.27;9.30;;;17.90;34.70;;;;;;5004854;28;20199;-83
2021/06/06 08:20:55;;;;;;;12.67;10.67;;;17.90;35.00;;;;;;5002645;28;20187;-81
2021/06/06 08:23:22;;;;;;;11.43;8.70;;;18.00;32.10;;;;;;4999639;28;20177;-81
2021/06/06 08:25:48;;;;;;;10.70;9.60;;;18.10;29.90;;;;;;5004475;28;20174;-80
2021/06/06 08:28:16;;;;;;;11.43;8.67;;;18.10;28.50;;;;;;4998768;28;20249;-81
2021/06/06 08:30:49;;;;;;;13.57;9.03;;;18.30;28.30;;;;;;4995495;28;20203;-81
2021/06/06 08:33:16;;;;;;;11.00;8.83;;;18.20;26.70;;;;;;4998847;28;20167;-82
2021/06/06 08:35:43;;;;;;;11.53;9.90;;;18.10;28.00;;;;;;4998302;28;20191;-82
2021/06/06 08:38:09;;;;;;;11.57;10.43;;;18.40;26.90;;;;;;4994971;28;20175;-80
2021/06/06 08:40:45;;;;;;;11.03;9.77;;;18.70;26.40;;;;;;5011759;28;20163;-79
2021/06/06 08:43:12;;;;;;;11.73;10.37;;;18.90;23.40;;;;;;4998039;28;20182;-79
2021/06/06 08:45:48;;;;;;;11.90;10.30;;;18.80;24.60;;;;;;4996892;28;20567;-78
2021/06/06 08:48:19;;;;;;;11.77;10.57;;;18.80;23.10;;;;;;4993415;28;20167;-79
2021/06/06 08:50:50;;;;;;;15.20;13.43;;;18.90;26.20;;;;;;4992652;28;20209;-79
2021/06/06 08:53:31;;;;;;;12.60;11.30;;;19.10;23.90;;;;;;4994201;28;20270;-81
2021/06/06 08:56:20;;;;;;;14.20;12.70;;;19.20;22.80;;;;;;4995665;28;20167;-80
2021/06/06 08:58:57;;;;;;;13.83;12.30;;;19.20;22.30;;;;;;4979171;28;20195;-78
2021/06/06 09:01:38;;;;;;;16.27;13.43;;;19.00;26.20;;;;;;4978112;28;20171;-80
2021/06/06 09:04:27;;;;;;;14.87;13.37;;;19.00;26.70;;;;;;4976811;28;20179;-82
2021/06/06 09:07:03;;;;;;;13.20;11.53;;;18.90;29.80;;;;;;4996314;28;20192;-82
2021/06/06 09:09:33;;;;;;;13.80;12.13;;;18.80;32.30;;;;;;4996102;28;20181;-82
2021/06/06 09:12:01;;;;;;;14.63;13.13;;;18.80;35.60;;;;;;4996064;28;20241;-81
2021/06/06 09:14:27;;;;;;;14.33;12.80;;;18.80;32.90;;;;;;4994306;28;20175;-79
2021/06/06 09:16:55;;;;;;;14.70;13.17;;;19.10;29.00;;;;;;4994370;28;20167;-78
2021/06/06 09:19:22;;;;;;;16.60;12.77;;;19.00;28.60;;;;;;4995791;28;20600;-80
2021/06/06 09:21:58;;;;;;;14.63;13.23;;;19.10;31.40;;;;;;4988591;28;20176;-81
2021/06/06 09:24:42;;;;;;;14.63;12.90;;;19.10;28.70;;;;;;4983218;28;20167;-80
2021/06/06 09:27:16;;;;;;;14.00;12.60;;;19.20;29.30;;;;;;4998383;28;20667;-82
2021/06/06 09:29:43;;;;;;;14.33;12.80;;;19.40;28.30;;;;;;4984982;28;20178;-81
2021/06/06 09:32:15;;;;;;;15.27;13.67;;;19.50;25.60;;;;;;4987557;28;20213;-79
2021/06/06 09:35:06;;;;;;;13.70;11.70;;;19.40;25.70;;;;;;4991294;28;20661;-80
2021/06/06 09:37:35;;;;;;;13.87;10.40;;;19.50;27.40;;;;;;4978438;28;20581;-80
2021/06/06 09:40:11;;;;;;;12.40;10.17;;;19.30;26.00;;;;;;4976591;28;20219;-80
2021/06/06 09:42:39;;;;;;;11.43;10.23;;;19.20;26.00;;;;;;4980537;28;20638;-81
2021/06/06 09:45:17;;;;;;;11.00;9.90;;;19.30;27.00;;;;;;4993937;28;20168;-81
2021/06/06 09:48:04;;;;;;;8.50;7.60;;;19.50;22.90;;;;;;5013981;28;20186;-81
2021/06/06 09:50:40;;;;;;;9.77;6.53;;;19.50;10.20;;;;;;5016424;28;20188;-82
2021/06/06 09:53:12;;;;;;;8.03;5.83;;;19.40;1.00;;;;;;5015694;28;20163;-80
2021/06/06 09:55:38;;;;;;;6.20;5.10;;;19.20;1.00;;;;;;5015653;28;20180;-81
2021/06/06 09:58:15;;;;;;;8.30;6.40;;;19.30;1.00;;;;;;5015329;28;20175;-81
2021/06/06 10:00:50;;;;;;;8.47;7.27;;;19.30;1.00;;;;;;5014564;28;20181;-80
2021/06/06 10:03:36;;;;;;;9.00;6.93;;;19.70;1.00;;;;;;5013653;28;20179;-81
2021/06/06 10:06:17;;;;;;;8.27;6.67;;;19.60;1.00;;;;;;5015035;28;20175;-79
2021/06/06 10:08:55;;;;;;;9.10;7.33;;;19.50;1.00;;;;;;5015923;28;20174;-80
2021/06/06 10:11:31;;;;;;;10.27;7.40;;;19.60;1.00;;;;;;5014728;28;20320;-79
2021/06/06 10:13:57;;;;;;;8.67;7.50;;;19.50;1.00;;;;;;5018875;28;20178;-80
2021/06/06 10:16:35;;;;;;;8.90;7.50;;;19.50;1.00;;;;;;5022615;28;20194;-81
2021/06/06 10:19:23;;;;;;;9.20;7.50;;;19.60;1.00;;;;;;5012584;28;20721;-80
2021/06/06 10:21:50;;;;;;;7.90;7.10;;;19.70;1.00;;;;;;4997220;28;20274;-80
2021/06/06 10:24:31;;;;;;;8.83;7.27;;;20.00;1.00;;;;;;5000638;28;20179;-81
2021/06/06 10:27:00;;;;;;;8.60;6.50;;;20.20;1.00;;;;;;4999537;28;20167;-80
2021/06/06 10:29:33;;;;;;;7.83;7.03;;;20.30;1.00;;;;;;4998572;28;20560;-82
2021/06/06 10:32:07;;;;;;;9.03;6.43;;;20.00;1.00;;;;;;4999866;28;20213;-81
2021/06/06 10:34:50;;;;;;;8.43;7.50;;;19.80;1.00;;;;;;5000949;28;20178;-82
2021/06/06 10:37:16;;;;;;;8.53;7.30;;;19.90;1.00;;;;;;5007217;28;20499;-80
2021/06/06 10:39:52;;;;;;;12.07;8.40;;;20.00;1.00;;;;;;5023375;28;20236;-82
2021/06/06 10:42:50;;;;;;;7.87;6.37;;;20.20;1.00;;;;;;4999994;28;20186;-82
2021/06/06 10:45:46;;;;;;;10.13;7.87;;;20.50;1.00;;;;;;4999591;28;20193;-82
2021/06/06 10:48:25;;;;;;;9.33;7.47;;;20.60;1.00;;;;;;4998104;28;20196;-81
2021/06/06 10:51:05;;;;;;;9.27;7.10;;;20.70;1.00;;;;;;4998086;28;20231;-80
2021/06/06 10:53:32;;;;;;;7.73;6.37;;;20.90;1.00;;;;;;4998493;28;20196;-81
2021/06/06 10:55:58;;;;;;;7.60;6.77;;;20.50;1.00;;;;;;4998829;28;20237;-82
2021/06/06 10:58:48;;;;;;;7.90;6.93;;;20.50;1.00;;;;;;5000726;28;20545;-80
2021/06/06 11:01:17;;;;;;;8.33;6.47;;;20.80;1.00;;;;;;4998780;28;20821;-79
2021/06/06 11:03:46;;;;;;;8.00;6.80;;;20.70;1.00;;;;;;4998471;28;20176;-80
2021/06/06 11:06:32;;;;;;;8.03;6.20;;;20.80;1.00;;;;;;4997337;28;20173;-82
2021/06/06 11:08:58;;;;;;;6.73;6.03;;;20.80;1.00;;;;;;4998826;28;20194;-81
2021/06/06 11:11:29;;;;;;;8.17;6.07;;;20.90;1.00;;;;;;4999533;28;20240;-80
2021/06/06 11:13:58;;;;;;;6.63;4.83;;;20.80;1.00;;;;;;4998286;28;20265;-80
2021/06/06 11:16:35;;;;;;;6.83;4.97;;;21.00;1.00;;;;;;4999339;28;20163;-82
2021/06/06 11:19:07;;;;;;;5.80;4.70;;;21.10;1.00;;;;;;5004290;28;20176;-80
2021/06/06 11:21:54;;;;;;;7.03;5.00;;;21.00;1.00;;;;;;5010247;28;20177;-79
2021/06/06 11:24:44;;;;;;;6.07;5.37;;;21.10;1.00;;;;;;5005475;28;20176;-83
2021/06/06 11:27:16;;;;;;;8.80;6.00;;;20.90;1.00;;;;;;5001952;28;20551;-80
2021/06/06 11:30:02;;;;;;;7.00;5.67;;;20.80;1.00;;;;;;5003028;28;20181;-82
2021/06/06 11:32:53;;;;;;;7.03;4.80;;;20.70;1.00;;;;;;4999995;28;20210;-80
2021/06/06 11:35:33;;;;;;;6.33;4.77;;;20.70;1.00;;;;;;4999547;28;20343;-80
2021/06/06 11:38:27;;;;;;;6.80;5.40;;;20.50;1.00;;;;;;4999800;28;20173;-80
2021/06/06 11:41:30;;;;;;;7.40;5.30;;;20.50;1.00;;;;;;4999304;28;20167;-81
2021/06/06 11:44:32;;;;;;;5.63;4.20;;;20.50;1.00;;;;;;4996732;28;20538;-80
2021/06/06 11:47:07;;;;;;;7.03;4.77;;;20.80;1.00;;;;;;4997192;28;20311;-81
2021/06/06 11:50:01;;;;;;;6.50;4.73;;;21.10;1.00;;;;;;4997050;28;20274;-81
2021/06/06 11:52:35;;;;;;;4.97;4.47;;;21.10;1.00;;;;;;4993620;28;20314;-79
2021/06/06 11:55:17;;;;;;;5.97;4.40;;;21.10;1.00;;;;;;4998184;28;20330;-80
2021/06/06 11:57:50;;;;;;;4.90;4.40;;;21.30;1.00;;;;;;5013331;28;20162;-81
2021/06/06 12:00:36;;;;;;;6.00;4.60;;;21.40;1.00;;;;;;5015607;28;20177;-79
2021/06/06 12:03:23;;;;;;;5.10;4.20;;;21.40;1.00;;;;;;5012419;28;20301;-80
2021/06/06 12:05:56;;;;;;;6.87;5.17;;;21.60;1.00;;;;;;5003537;28;20656;-80
2021/06/06 12:08:49;;;;;;;7.57;5.20;;;21.60;1.00;;;;;;4998520;28;20173;-79
2021/06/06 12:11:27;;;;;;;5.87;5.17;;;21.60;1.00;;;;;;4986220;28;20225;-78
2021/06/06 12:14:16;;;;;;;5.90;4.97;;;21.60;1.00;;;;;;4979284;28;20531;-80
2021/06/06 12:16:47;;;;;;;5.23;4.50;;;21.40;1.00;;;;;;4993812;28;20285;-80
2021/06/06 12:19:16;;;;;;;4.90;3.83;;;21.40;1.00;;;;;;4985287;28;20188;-81
2021/06/06 12:21:48;;;;;;;4.73;2.83;;;21.50;1.00;;;;;;4980254;28;20193;-79
2021/06/06 12:24:17;;;;;;;3.90;2.50;;;21.60;99.90;;;;;;4992476;28;20223;-79
2021/06/06 12:26:49;;;;;;;4.70;3.03;;;21.80;99.90;;;;;;4993583;28;20603;-82
2021/06/06 12:29:29;;;;;;;3.60;1.80;;;22.00;99.90;;;;;;4990519;28;20174;-82
2021/06/06 12:32:04;;;;;;;4.57;2.33;;;21.80;1.00;;;;;;4978481;28;20215;-79
2021/06/06 12:34:30;;;;;;;2.83;1.83;;;21.60;99.90;;;;;;4996643;28;20228;-81
2021/06/06 12:37:02;;;;;;;2.37;1.77;;;21.30;98.40;;;;;;4998200;28;20184;-80
2021/06/06 12:39:28;;;;;;;2.90;1.53;;;21.20;1.00;;;;;;4997701;28;20626;-82
2021/06/06 12:41:56;;;;;;;2.10;1.20;;;21.20;1.00;;;;;;4995698;28;20638;-80
2021/06/06 12:44:30;;;;;;;2.60;1.30;;;21.20;1.00;;;;;;4995471;28;20183;-80
2021/06/06 12:47:04;;;;;;;4.10;1.70;;;21.40;99.90;;;;;;5009888;28;20180;-80
2021/06/06 12:49:32;;;;;;;2.10;1.53;;;21.60;68.00;;;;;;5014812;28;20520;-82
2021/06/06 12:52:03;;;;;;;2.40;1.53;;;21.60;99.90;;;;;;5016258;28;20205;-80
2021/06/06 12:54:37;;;;;;;2.77;1.40;;;21.60;99.90;;;;;;5015944;28;20180;-80